Mumbai, India

7:30 PM IST on July 29, 2015 (GMT +0530)
Chhatrapati Shivaji International | | Change Station
CLOSE
Current Station
Airport
Location: Mumbai,
Elevation: 46 ft
Nearby Weather Stations

Elev 46 ft 19.10 °N, 72.86 °E | Updated 20 minutes ago

Haze
Haze
81 °F
Feels Like 87 °F
N
8
Wind Variable Wind from SW

Today
High -- | Low -- °F
--% Chance of Precip.
Yesterday
High -- | Low -- °F
Precip. -- in
6:14 AM 7:15 PM
Waxing Gibbous, 95% visible
Pressure 29.74 in
Visibility 1.6 miles
Clouds Scattered Clouds 1000 ft
Scattered Clouds 1800 ft
Few 2500 ft
Overcast 9000 ft
Heat Index 87 °F
Dew Point 77 °F
Humidity 89%
Rainfall 0.00 in
Snow Depth Not available.
UV 0 out of 12
Pollen Not available.
Air Quality Not available.
Flu Activity Not available.
METAR VABB 291340Z 22007KT 2500 HZ SCT010 SCT018 FEW025TCU OVC090 27/25 Q1007 TEMPO 1500 SHRA

More Conditions Fewer Conditions

Pressure 29.74 in
Visibility 1.6 miles
Clouds Scattered Clouds 1000 ft
Scattered Clouds 1800 ft
Few 2500 ft
Overcast 9000 ft
Heat Index 87 °F
Dew Point 77 °F
Humidity 89%
Rainfall 0.00 in
Snow Depth Not available.
UV 0 out of 12
Pollen Not available.
Air Quality Not available.
Flu Activity Not available.
METAR VABB 291340Z 22007KT 2500 HZ SCT010 SCT018 FEW025TCU OVC090 27/25 Q1007 TEMPO 1500 SHRA

More Conditions Fewer Conditions

10-Day Weather Forecast

×

Almanac

Astronomy

Jul. 29, 2015 Rise Set
Actual Time
Civil Twilight
Nautical Twilight
Astronomical Twilight
Moon
Length of Visible Light
Length of Day
Tomorrow will be .
, % of the Moon is Illuminated

Today's Extremes

Country Highs Country Lows

Community

WunderPhotos

Upload Photos

1,842,110 photos uploaded!

WunderBlogs® & News

Nearby

Air Quality

  Air Quality AQ Index Pollutant
Not available.

Snow Depth

Station Depth Elevation

Earthquake Activity

City Distance Mag. Time & Date
Minimum magnitude displayed is 2.5.

Coastal Water Temperatures

Place Temperature

Stations

Nearby Weather Stations

Station Location Temp. Windchill Dew Point Humidity Wind Precip. Elev Updated Type